createdAt,value
2024-02-20T00:00:32.948Z,98333.02
2024-02-20T00:03:20.844Z,98330.83
2024-02-20T00:05:48.727Z,98331.48
2024-02-20T00:08:16.873Z,98332.65
2024-02-20T00:10:44.962Z,98329.54
2024-02-20T00:13:13.892Z,98328.31
2024-02-20T00:15:42.856Z,98326.21
2024-02-20T00:18:11.553Z,98326.15
2024-02-20T00:20:41.266Z,98324.06
2024-02-20T00:23:11.735Z,98324.07
2024-02-20T00:25:44.097Z,98323.71
2024-02-20T00:28:13.355Z,98321.42
2024-02-20T00:30:41.608Z,98315.21
2024-02-20T00:33:09.886Z,98315.88
2024-02-20T00:35:38.000Z,98312.11
2024-02-20T00:38:05.952Z,98310.75
2024-02-20T00:40:33.816Z,98313.18
2024-02-20T00:43:02.004Z,98311.17
2024-02-20T00:45:29.933Z,98312.60
2024-02-20T00:47:57.863Z,98310.09
2024-02-20T00:50:26.131Z,98310.82
2024-02-20T00:52:54.337Z,98313.59
2024-02-20T00:55:22.672Z,98313.11
2024-02-20T00:57:50.711Z,98308.84
2024-02-20T01:00:18.942Z,98305.98
2024-02-20T01:02:48.814Z,98305.16
2024-02-20T01:05:17.717Z,98305.34
2024-02-20T01:07:45.854Z,98302.44
2024-02-20T01:10:14.071Z,98303.33
2024-02-20T01:12:42.135Z,98302.14
2024-02-20T01:15:10.290Z,98294.42
2024-02-20T01:17:38.211Z,98295.27
2024-02-20T01:20:07.696Z,98291.30
2024-02-20T01:22:35.787Z,98289.61
2024-02-20T01:25:05.091Z,98291.86
2024-02-20T01:27:33.129Z,98289.17
2024-02-20T01:30:01.035Z,98281.65
2024-02-20T01:32:29.723Z,98277.77
2024-02-20T01:34:58.128Z,98273.55
2024-02-20T01:37:26.608Z,98274.77
2024-02-20T01:39:54.558Z,98272.19
2024-02-20T01:42:22.457Z,98269.63
2024-02-20T01:44:50.278Z,98267.88
2024-02-20T01:47:18.690Z,98269.25
2024-02-20T01:49:47.746Z,98267.02
2024-02-20T01:52:16.357Z,98265.63
2024-02-20T01:54:44.765Z,98265.81
2024-02-20T01:57:12.918Z,98265.25
2024-02-20T01:59:41.124Z,98261.13
2024-02-20T02:02:09.412Z,98266.23
2024-02-20T02:04:37.977Z,98260.04
2024-02-20T02:07:06.262Z,98259.83
2024-02-20T02:09:34.219Z,98260.65
2024-02-20T02:12:02.277Z,98264.74
2024-02-20T02:14:30.084Z,98263.55
2024-02-20T02:16:58.239Z,98264.73
2024-02-20T02:19:26.260Z,98265.44
2024-02-20T02:21:54.617Z,98265.84
2024-02-20T02:24:22.846Z,98263.82
2024-02-20T02:26:50.714Z,98263.66
2024-02-20T02:29:18.999Z,98262.95
2024-02-20T02:31:47.060Z,98259.65
2024-02-20T02:34:15.603Z,98262.70
2024-02-20T02:36:45.815Z,98263.52
2024-02-20T02:39:14.036Z,98265.02
2024-02-20T02:41:41.879Z,98262.95
2024-02-20T02:44:09.913Z,98261.39
2024-02-20T02:46:37.833Z,98262.56
2024-02-20T02:49:07.085Z,98262.90
2024-02-20T02:51:35.354Z,98260.83
2024-02-20T02:54:03.629Z,98260.13
2024-02-20T02:56:31.905Z,98258.02
2024-02-20T02:59:04.079Z,98258.86
2024-02-20T03:01:32.300Z,98258.88
2024-02-20T03:04:01.580Z,98256.36
2024-02-20T03:06:29.693Z,98255.68
2024-02-20T03:08:57.753Z,98259.02
2024-02-20T03:11:25.763Z,98262.48
2024-02-20T03:13:53.829Z,98262.49
2024-02-20T03:16:21.869Z,98264.06
2024-02-20T03:18:50.061Z,98263.38
2024-02-20T03:21:18.329Z,98264.96
2024-02-20T03:23:46.825Z,98268.75
2024-02-20T03:26:15.231Z,98270.66
2024-02-20T03:28:44.917Z,98272.73
2024-02-20T03:31:14.891Z,98274.27
2024-02-20T03:33:43.128Z,98272.16
2024-02-20T03:36:11.268Z,98275.16
2024-02-20T03:38:39.235Z,98278.17
2024-02-20T03:41:07.323Z,98279.81
2024-02-20T03:43:38.689Z,98278.54
2024-02-20T03:46:07.373Z,98278.46
2024-02-20T03:48:35.681Z,98281.81
2024-02-20T03:51:05.038Z,98279.31
2024-02-20T03:53:32.925Z,98284.66
2024-02-20T03:56:00.781Z,98287.48
2024-02-20T03:58:28.717Z,98290.13
2024-02-20T04:00:57.009Z,98287.30
2024-02-20T04:03:25.036Z,98288.24
2024-02-20T04:05:53.114Z,98285.95
2024-02-20T04:08:21.335Z,98286.22
2024-02-20T04:10:49.965Z,98284.94
2024-02-20T04:13:18.103Z,98282.23
2024-02-20T04:15:50.224Z,98284.49
2024-02-20T04:18:18.592Z,98287.70
2024-02-20T04:20:46.706Z,98290.05
2024-02-20T04:23:14.895Z,98289.45
2024-02-20T04:25:44.671Z,98291.48
2024-02-20T04:28:13.339Z,98292.35
2024-02-20T04:30:46.345Z,98291.83
2024-02-20T04:33:14.501Z,98286.36
2024-02-20T04:35:42.810Z,98284.17
2024-02-20T04:38:11.592Z,98282.61
2024-02-20T04:40:39.541Z,98281.60
2024-02-20T04:43:07.509Z,98285.60
2024-02-20T04:45:35.765Z,98288.73
2024-02-20T04:48:03.989Z,98290.18
2024-02-20T04:50:32.166Z,98290.77
2024-02-20T04:53:00.125Z,98290.49
2024-02-20T04:55:28.342Z,98290.18
2024-02-20T04:57:56.514Z,98290.60
2024-02-20T05:00:24.833Z,98289.11
2024-02-20T05:02:52.825Z,98288.80
2024-02-20T05:05:20.977Z,98285.90
2024-02-20T05:07:50.296Z,98280.38
2024-02-20T05:10:18.798Z,98281.59
2024-02-20T05:12:46.850Z,98279.24
2024-02-20T05:15:14.813Z,98276.73
2024-02-20T05:17:42.923Z,98280.73
2024-02-20T05:20:11.191Z,98285.73
2024-02-20T05:22:39.639Z,98285.45
2024-02-20T05:25:08.390Z,98287.20
2024-02-20T05:27:36.425Z,98291.67
2024-02-20T05:30:04.752Z,98290.52
2024-02-20T05:32:33.100Z,98290.70
2024-02-20T05:35:01.396Z,98289.33
2024-02-20T05:37:29.552Z,98292.13
2024-02-20T05:39:57.608Z,98294.41
2024-02-20T05:42:25.829Z,98298.59
2024-02-20T05:44:53.677Z,98300.86
2024-02-20T05:47:21.536Z,98302.98
2024-02-20T05:49:49.525Z,98310.87
2024-02-20T05:52:17.716Z,98312.76
2024-02-20T05:54:47.569Z,98311.73
2024-02-20T05:57:15.484Z,98314.64
2024-02-20T05:59:43.437Z,98315.69
2024-02-20T06:02:11.523Z,98317.89
2024-02-20T06:04:40.845Z,98320.59
2024-02-20T06:07:09.361Z,98322.58
2024-02-20T06:09:41.055Z,98325.95
2024-02-20T06:12:11.250Z,98326.74
2024-02-20T06:14:43.112Z,98325.84
2024-02-20T06:17:11.986Z,98327.67
2024-02-20T06:19:39.995Z,98330.92
2024-02-20T06:22:08.339Z,98332.58
2024-02-20T06:24:36.840Z,98331.71
2024-02-20T06:27:08.409Z,98335.63
2024-02-20T06:29:37.310Z,98334.04
2024-02-20T06:32:06.112Z,98337.58
2024-02-20T06:34:34.461Z,98338.88
2024-02-20T06:37:03.066Z,98341.39
2024-02-20T06:39:31.373Z,98344.91
2024-02-20T06:41:59.561Z,98348.61
2024-02-20T06:44:27.602Z,98352.64
2024-02-20T06:46:55.800Z,98356.85
2024-02-20T06:49:24.676Z,98356.42
2024-02-20T06:51:52.925Z,98356.00
2024-02-20T06:54:20.939Z,98356.43
2024-02-20T06:56:48.840Z,98357.60
2024-02-20T06:59:16.896Z,98360.29
2024-02-20T07:01:45.061Z,98362.98
2024-02-20T07:04:15.228Z,98360.71
2024-02-20T07:06:43.667Z,98359.02
2024-02-20T07:09:11.933Z,98361.70
2024-02-20T07:11:39.824Z,98364.21
2024-02-20T07:14:08.074Z,98366.02
2024-02-20T07:16:36.773Z,98366.42
2024-02-20T07:19:05.140Z,98366.90
2024-02-20T07:21:33.475Z,98363.66
2024-02-20T07:24:01.471Z,98364.16
2024-02-20T07:26:29.427Z,98367.30
2024-02-20T07:28:58.320Z,98363.80
2024-02-20T07:31:26.996Z,98362.56
2024-02-20T07:34:03.892Z,98365.81
2024-02-20T07:36:38.553Z,98367.45
2024-02-20T07:39:06.696Z,98361.16
2024-02-20T07:41:35.996Z,98358.81
2024-02-20T07:44:04.147Z,98359.73
2024-02-20T07:46:33.943Z,98357.19
2024-02-20T07:49:02.396Z,98352.26
2024-02-20T07:51:31.605Z,98351.80
2024-02-20T07:53:59.557Z,98354.48
2024-02-20T07:56:28.988Z,98356.98
2024-02-20T07:58:56.995Z,98356.20
2024-02-20T08:01:26.521Z,98359.02
2024-02-20T08:03:55.350Z,98358.04
2024-02-20T08:06:32.367Z,98358.14
2024-02-20T08:09:00.487Z,98360.14
2024-02-20T08:11:29.298Z,98360.08
2024-02-20T08:13:57.270Z,98358.23
2024-02-20T08:16:25.390Z,98355.63
2024-02-20T08:18:53.723Z,98358.14
2024-02-20T08:21:21.924Z,98362.30
2024-02-20T08:23:50.166Z,98362.77
2024-02-20T08:26:18.573Z,98360.85
2024-02-20T08:28:47.824Z,98362.39
2024-02-20T08:31:20.313Z,98365.08
2024-02-20T08:33:49.602Z,98371.07
2024-02-20T08:36:19.026Z,98374.50
2024-02-20T08:38:47.272Z,98374.98
2024-02-20T08:41:15.141Z,98378.56
2024-02-20T08:43:43.951Z,98377.13
2024-02-20T08:46:11.884Z,98374.36
2024-02-20T08:48:39.751Z,98377.42
2024-02-20T08:51:07.861Z,98381.05
2024-02-20T08:53:36.132Z,98381.88
2024-02-20T08:56:04.696Z,98382.13
2024-02-20T08:58:33.004Z,98384.87
2024-02-20T09:01:02.830Z,98384.41
2024-02-20T09:03:31.303Z,98381.70
2024-02-20T09:05:59.645Z,98383.80
2024-02-20T09:08:27.812Z,98385.81
2024-02-20T09:10:55.953Z,98385.89
2024-02-20T09:13:24.159Z,98389.57
2024-02-20T09:15:53.227Z,98391.82
2024-02-20T09:18:21.288Z,98394.30
2024-02-20T09:20:50.268Z,98392.64
2024-02-20T09:23:18.246Z,98392.80
2024-02-20T09:25:47.702Z,98399.23
2024-02-20T09:28:15.860Z,98398.92
2024-02-20T09:30:43.886Z,98401.31
2024-02-20T09:33:14.936Z,98403.69
2024-02-20T09:35:43.077Z,98405.98
2024-02-20T09:38:11.684Z,98404.45
2024-02-20T09:40:39.929Z,98407.64
2024-02-20T09:43:08.988Z,98412.09
2024-02-20T09:45:41.080Z,98413.30
2024-02-20T09:48:15.603Z,98414.77
2024-02-20T09:50:44.043Z,98412.98
2024-02-20T09:53:15.560Z,98413.77
2024-02-20T09:55:45.464Z,98413.02
2024-02-20T09:58:13.527Z,98409.17
2024-02-20T10:00:41.806Z,98407.49
2024-02-20T10:03:10.496Z,98401.28
2024-02-20T10:05:44.164Z,98400.08
2024-02-20T10:08:12.162Z,98397.15
2024-02-20T10:10:41.973Z,98395.48
2024-02-20T10:13:10.277Z,98390.67
2024-02-20T10:15:38.364Z,98392.02
2024-02-20T10:18:07.309Z,98389.79
2024-02-20T10:20:36.032Z,98387.41
2024-02-20T10:23:05.401Z,98389.08
2024-02-20T10:25:33.387Z,98388.60
2024-02-20T10:28:02.810Z,98386.87
2024-02-20T10:30:31.723Z,98385.26
2024-02-20T10:33:00.300Z,98377.98
2024-02-20T10:35:28.889Z,98374.52
2024-02-20T10:38:01.851Z,98376.98
2024-02-20T10:40:30.824Z,98375.96
2024-02-20T10:42:59.634Z,98374.20
2024-02-20T10:45:29.006Z,98373.37
2024-02-20T10:47:59.175Z,98373.41
2024-02-20T10:50:27.700Z,98367.59
2024-02-20T10:52:58.819Z,98366.83
2024-02-20T10:55:32.644Z,98364.45
2024-02-20T10:58:05.525Z,98364.39
2024-02-20T11:00:38.467Z,98362.86
2024-02-20T11:03:10.011Z,98357.06
2024-02-20T11:05:38.539Z,98355.03
2024-02-20T11:08:11.850Z,98354.08
2024-02-20T11:10:41.859Z,98358.77
2024-02-20T11:13:15.185Z,98353.75
2024-02-20T11:15:43.720Z,98354.80
2024-02-20T11:18:16.920Z,98353.09
2024-02-20T11:20:45.880Z,98348.27
2024-02-20T11:23:14.115Z,98347.85
2024-02-20T11:25:45.005Z,98342.59
2024-02-20T11:28:18.208Z,98345.31
2024-02-20T11:30:47.458Z,98345.42
2024-02-20T11:33:20.662Z,98349.18
2024-02-20T11:35:50.441Z,98346.58
2024-02-20T11:38:21.720Z,98349.99
2024-02-20T11:40:50.312Z,98349.48
2024-02-20T11:43:20.892Z,98345.18
2024-02-20T11:45:51.468Z,98345.75
2024-02-20T11:48:19.808Z,98346.96
2024-02-20T11:50:48.306Z,98347.25
2024-02-20T11:53:17.827Z,98346.61
2024-02-20T11:55:55.652Z,98348.52
2024-02-20T11:58:27.757Z,98345.14
2024-02-20T12:01:05.664Z,98346.13
2024-02-20T12:03:35.986Z,98344.63
2024-02-20T12:06:06.639Z,98344.59
2024-02-20T12:08:41.832Z,98340.87
2024-02-20T12:11:12.726Z,98342.31
2024-02-20T12:13:41.442Z,98342.77
2024-02-20T12:16:24.483Z,98338.67
2024-02-20T12:18:53.495Z,98337.65
2024-02-20T12:21:26.160Z,98338.52
2024-02-20T12:23:55.166Z,98331.48
2024-02-20T12:26:23.987Z,98332.42
2024-02-20T12:28:52.115Z,98332.96
2024-02-20T12:31:24.928Z,98331.56
2024-02-20T12:33:53.517Z,98329.75
2024-02-20T12:36:21.996Z,98328.71
2024-02-20T12:38:50.088Z,98323.06
2024-02-20T12:41:18.151Z,98321.02
2024-02-20T12:43:46.274Z,98319.43
2024-02-20T12:46:14.682Z,98314.13
2024-02-20T12:48:52.025Z,98317.89
2024-02-20T12:51:20.360Z,98315.88
2024-02-20T12:53:48.848Z,98316.36
2024-02-20T12:56:17.017Z,98311.05
2024-02-20T12:58:47.269Z,98309.54
2024-02-20T13:01:16.540Z,98304.50
2024-02-20T13:03:45.039Z,98302.52
2024-02-20T13:06:13.217Z,98305.02
2024-02-20T13:08:41.401Z,98306.19
2024-02-20T13:11:10.933Z,98311.06
2024-02-20T13:13:39.050Z,98309.29
2024-02-20T13:16:07.768Z,98306.80
2024-02-20T13:18:35.927Z,98302.52
2024-02-20T13:21:06.686Z,98305.02
2024-02-20T13:23:34.813Z,98305.70
2024-02-20T13:26:02.796Z,98308.17
2024-02-20T13:28:30.992Z,98307.98
2024-02-20T13:30:59.451Z,98309.63
2024-02-20T13:33:27.616Z,98312.48
2024-02-20T13:35:55.643Z,98307.58
2024-02-20T13:38:23.809Z,98305.13
2024-02-20T13:40:52.945Z,98303.38
2024-02-20T13:43:21.207Z,98303.52
2024-02-20T13:45:53.857Z,98302.64
2024-02-20T13:48:21.917Z,98301.59
2024-02-20T13:50:50.506Z,98305.08
2024-02-20T13:53:19.288Z,98306.66
2024-02-20T13:55:48.871Z,98302.42
2024-02-20T13:58:17.345Z,98300.81
2024-02-20T14:00:45.699Z,98300.84
2024-02-20T14:03:17.357Z,98299.31
2024-02-20T14:05:46.249Z,98298.16
2024-02-20T14:08:14.371Z,98295.64
2024-02-20T14:10:42.630Z,98297.30
2024-02-20T14:13:10.614Z,98297.83
2024-02-20T14:15:38.979Z,98296.31
2024-02-20T14:18:07.167Z,98296.85
2024-02-20T14:20:36.357Z,98299.70
2024-02-20T14:23:07.906Z,98299.96
2024-02-20T14:25:36.483Z,98301.89
2024-02-20T14:28:05.639Z,98301.02
2024-02-20T14:30:40.997Z,98298.63
2024-02-20T14:33:13.804Z,98298.73
2024-02-20T14:35:42.010Z,98301.78
2024-02-20T14:38:12.020Z,98300.67
2024-02-20T14:40:40.624Z,98298.84
2024-02-20T14:43:08.712Z,98293.13
2024-02-20T14:45:36.539Z,98292.14
2024-02-20T14:48:06.120Z,98289.31
2024-02-20T14:50:34.308Z,98288.29
2024-02-20T14:53:03.432Z,98287.08
2024-02-20T14:55:32.545Z,98287.41
2024-02-20T14:58:01.207Z,98292.43
2024-02-20T15:00:29.024Z,98293.83
2024-02-20T15:02:57.653Z,98294.70
2024-02-20T15:05:26.209Z,98295.94
2024-02-20T15:07:54.322Z,98292.90
2024-02-20T15:10:22.673Z,98292.33
2024-02-20T15:12:50.637Z,98295.06
2024-02-20T15:15:19.306Z,98294.34
2024-02-20T15:17:47.620Z,98296.14
2024-02-20T15:20:16.072Z,98294.59
2024-02-20T15:22:44.179Z,98298.54
2024-02-20T15:25:17.230Z,98301.15
2024-02-20T15:27:48.480Z,98301.11
2024-02-20T15:30:17.688Z,98302.13
2024-02-20T15:32:47.574Z,98304.59
2024-02-20T15:35:16.522Z,98303.73
2024-02-20T15:37:46.776Z,98304.70
2024-02-20T15:40:15.728Z,98303.42
2024-02-20T15:42:46.094Z,98307.16
2024-02-20T15:45:14.379Z,98313.27
2024-02-20T15:47:42.906Z,98316.05
2024-02-20T15:50:12.158Z,98319.57
2024-02-20T15:52:42.286Z,98318.55
2024-02-20T15:55:13.059Z,98321.09
2024-02-20T15:57:41.372Z,98322.63
2024-02-20T16:00:10.173Z,98322.64
2024-02-20T16:02:43.632Z,98321.06
2024-02-20T16:05:11.953Z,98326.44
2024-02-20T16:07:40.449Z,98328.36
2024-02-20T16:10:08.839Z,98330.12
2024-02-20T16:12:38.443Z,98330.54
2024-02-20T16:15:07.813Z,98333.53
2024-02-20T16:17:39.605Z,98336.52
2024-02-20T16:20:08.518Z,98335.05
2024-02-20T16:22:37.113Z,98336.67
2024-02-20T16:25:08.336Z,98338.86
2024-02-20T16:27:36.743Z,98343.32
2024-02-20T16:30:06.380Z,98344.20
2024-02-20T16:32:34.476Z,98351.79
2024-02-20T16:35:05.042Z,98357.34
2024-02-20T16:37:33.260Z,98361.52
2024-02-20T16:40:01.358Z,98361.86
2024-02-20T16:42:29.299Z,98362.88
2024-02-20T16:44:57.322Z,98369.21
2024-02-20T16:47:25.185Z,98371.10
2024-02-20T16:49:53.292Z,98374.89
2024-02-20T16:52:21.332Z,98375.24
2024-02-20T16:54:49.490Z,98375.20
2024-02-20T16:57:17.779Z,98377.00
2024-02-20T16:59:45.658Z,98382.44
2024-02-20T17:02:13.758Z,98383.88
2024-02-20T17:04:42.585Z,98384.52
2024-02-20T17:07:11.141Z,98384.95
2024-02-20T17:09:39.985Z,98390.04
2024-02-20T17:12:07.963Z,98393.59
2024-02-20T17:14:36.044Z,98399.53
2024-02-20T17:17:04.480Z,98403.09
2024-02-20T17:19:32.679Z,98406.83
2024-02-20T17:22:00.784Z,98408.70
2024-02-20T17:24:28.973Z,98406.77
2024-02-20T17:26:58.790Z,98409.28
2024-02-20T17:29:28.590Z,98411.67
2024-02-20T17:31:57.316Z,98410.61
2024-02-20T17:34:26.201Z,98413.66
2024-02-20T17:36:56.389Z,98409.28
2024-02-20T17:39:24.483Z,98407.30
2024-02-20T17:41:52.544Z,98407.75
2024-02-20T17:44:20.456Z,98407.78
2024-02-20T17:46:52.105Z,98410.38
2024-02-20T17:49:21.237Z,98412.81
2024-02-20T17:51:51.242Z,98413.85
2024-02-20T17:54:19.130Z,98412.52
2024-02-20T17:56:47.435Z,98411.63
2024-02-20T17:59:15.761Z,98413.91
2024-02-20T18:01:45.170Z,98416.16
2024-02-20T18:04:13.228Z,98419.96
2024-02-20T18:06:41.900Z,98426.68
2024-02-20T18:09:11.153Z,98426.39
2024-02-20T18:11:39.125Z,98428.88
2024-02-20T18:14:07.334Z,98431.11
2024-02-20T18:16:35.509Z,98430.76
2024-02-20T18:19:03.742Z,98427.02
2024-02-20T18:21:31.983Z,98423.96
2024-02-20T18:24:00.771Z,98423.98
2024-02-20T18:26:30.863Z,98423.48
2024-02-20T18:28:59.740Z,98422.49
2024-02-20T18:31:28.143Z,98425.00
2024-02-20T18:33:56.193Z,98430.54
2024-02-20T18:36:24.064Z,98434.71
2024-02-20T18:38:52.684Z,98435.73
2024-02-20T18:41:20.794Z,98440.89
2024-02-20T18:43:49.022Z,98444.64
2024-02-20T18:46:17.439Z,98446.37
2024-02-20T18:48:45.501Z,98448.93
2024-02-20T18:51:13.569Z,98452.17
2024-02-20T18:53:41.389Z,98450.80
2024-02-20T18:56:09.325Z,98452.15
2024-02-20T18:58:37.350Z,98455.86
2024-02-20T19:01:05.348Z,98453.90
2024-02-20T19:03:33.698Z,98453.98
2024-02-20T19:06:01.894Z,98457.50
2024-02-20T19:08:34.804Z,98462.39
2024-02-20T19:11:03.277Z,98463.81
2024-02-20T19:13:31.750Z,98465.61
2024-02-20T19:15:59.747Z,98467.23
2024-02-20T19:18:27.893Z,98465.46
2024-02-20T19:20:55.959Z,98463.52
2024-02-20T19:23:24.053Z,98469.26
2024-02-20T19:25:52.339Z,98471.04
2024-02-20T19:28:20.507Z,98473.01
2024-02-20T19:30:48.538Z,98476.17
2024-02-20T19:33:16.803Z,98472.66
2024-02-20T19:35:46.708Z,98472.05
2024-02-20T19:38:19.290Z,98472.80
2024-02-20T19:40:50.116Z,98475.26
2024-02-20T19:43:19.372Z,98474.30
2024-02-20T19:45:47.834Z,98474.52
2024-02-20T19:48:15.941Z,98476.48
2024-02-20T19:50:44.608Z,98475.54
2024-02-20T19:53:16.452Z,98470.61
2024-02-20T19:55:44.599Z,98472.55
2024-02-20T19:58:15.898Z,98471.91
2024-02-20T20:00:47.181Z,98470.09
2024-02-20T20:03:15.148Z,98476.31
2024-02-20T20:05:44.013Z,98472.08
2024-02-20T20:08:12.265Z,98469.73
2024-02-20T20:10:40.529Z,98469.81
2024-02-20T20:13:10.688Z,98473.65
2024-02-20T20:15:38.693Z,98472.84
2024-02-20T20:18:07.246Z,98473.24
2024-02-20T20:20:35.485Z,98475.36
2024-02-20T20:23:03.861Z,98473.34
2024-02-20T20:25:32.020Z,98469.60
2024-02-20T20:28:00.044Z,98468.59
2024-02-20T20:30:28.194Z,98474.95
2024-02-20T20:32:56.212Z,98474.81
2024-02-20T20:35:27.860Z,98472.63
2024-02-20T20:37:57.766Z,98475.41
2024-02-20T20:40:26.172Z,98473.39
2024-02-20T20:42:54.374Z,98477.02
2024-02-20T20:45:22.529Z,98475.00
2024-02-20T20:47:50.503Z,98470.41
2024-02-20T20:50:18.767Z,98472.49
2024-02-20T20:52:46.925Z,98473.37
2024-02-20T20:55:15.405Z,98473.23
2024-02-20T20:57:43.356Z,98471.18
2024-02-20T21:00:14.382Z,98472.38
2024-02-20T21:02:42.435Z,98470.32
2024-02-20T21:05:10.480Z,98473.23
2024-02-20T21:07:38.629Z,98472.04
2024-02-20T21:10:07.034Z,98471.86
2024-02-20T21:12:35.005Z,98470.50
2024-02-20T21:15:04.850Z,98469.27
2024-02-20T21:17:33.063Z,98468.92
2024-02-20T21:20:01.217Z,98468.38
2024-02-20T21:22:29.559Z,98464.60
2024-02-20T21:24:57.488Z,98466.95
2024-02-20T21:27:25.385Z,98465.57
2024-02-20T21:29:53.484Z,98462.81
2024-02-20T21:32:21.476Z,98465.19
2024-02-20T21:34:49.468Z,98461.55
2024-02-20T21:37:18.476Z,98462.40
2024-02-20T21:39:46.643Z,98463.48
2024-02-20T21:42:15.069Z,98466.11
2024-02-20T21:44:43.333Z,98467.00
2024-02-20T21:47:11.617Z,98464.08
2024-02-20T21:49:39.551Z,98465.44
2024-02-20T21:52:08.987Z,98464.08
2024-02-20T21:54:37.093Z,98465.15
2024-02-20T21:57:06.149Z,98464.19
2024-02-20T21:59:34.215Z,98466.27
2024-02-20T22:02:02.239Z,98468.35
2024-02-20T22:04:30.351Z,98470.42
2024-02-20T22:06:58.421Z,98470.30
2024-02-20T22:09:27.486Z,98468.80
2024-02-20T22:11:56.517Z,98468.28
2024-02-20T22:14:25.064Z,98470.89
2024-02-20T22:16:53.150Z,98471.77
2024-02-20T22:19:21.573Z,98472.16
2024-02-20T22:21:49.876Z,98470.45
2024-02-20T22:24:18.015Z,98470.49
2024-02-20T22:26:45.917Z,98472.89
2024-02-20T22:29:13.732Z,98477.90
2024-02-20T22:31:41.852Z,98479.28
2024-02-20T22:34:09.983Z,98477.61
2024-02-20T22:36:38.070Z,98474.21
2024-02-20T22:39:06.229Z,98471.49
2024-02-20T22:41:34.431Z,98471.53
2024-02-20T22:44:02.594Z,98470.86
2024-02-20T22:46:30.485Z,98471.73
2024-02-20T22:48:58.637Z,98471.77
2024-02-20T22:51:27.151Z,98472.97
2024-02-20T22:53:55.185Z,98475.23
2024-02-20T22:56:24.869Z,98474.40
2024-02-20T22:58:53.349Z,98477.67
2024-02-20T23:01:21.439Z,98474.27
2024-02-20T23:03:50.049Z,98473.25
2024-02-20T23:06:18.093Z,98471.73
2024-02-20T23:08:46.386Z,98471.25
2024-02-20T23:11:14.367Z,98468.17
2024-02-20T23:13:42.530Z,98468.73
2024-02-20T23:16:10.812Z,98462.58
2024-02-20T23:18:38.838Z,98458.33
2024-02-20T23:21:07.252Z,98455.41
2024-02-20T23:23:35.322Z,98453.73
2024-02-20T23:26:03.285Z,98453.05
2024-02-20T23:28:31.331Z,98450.83
2024-02-20T23:30:59.643Z,98453.56
2024-02-20T23:33:27.818Z,98453.73
2024-02-20T23:35:55.835Z,98451.16
2024-02-20T23:38:23.644Z,98451.18
2024-02-20T23:40:53.308Z,98450.17
2024-02-20T23:43:21.727Z,98448.98
2024-02-20T23:45:50.021Z,98450.89
2024-02-20T23:48:18.862Z,98450.02
2024-02-20T23:50:47.235Z,98446.11
2024-02-20T23:53:15.366Z,98446.97
2024-02-20T23:55:43.715Z,98446.11
2024-02-20T23:58:11.745Z,98446.13
